createdAt,value
2018-06-23T00:00:16.788Z,3.00
2018-06-23T00:02:44.500Z,2.80
2018-06-23T00:05:12.439Z,2.60
2018-06-23T00:07:39.857Z,3.07
2018-06-23T00:10:06.961Z,3.00
2018-06-23T00:12:34.212Z,2.93
2018-06-23T00:15:01.155Z,2.47
2018-06-23T00:17:28.277Z,2.47
2018-06-23T00:19:55.226Z,2.70
2018-06-23T00:22:22.253Z,2.70
2018-06-23T00:24:49.272Z,2.50
2018-06-23T00:27:16.462Z,2.60
2018-06-23T00:29:43.440Z,3.20
2018-06-23T00:32:10.400Z,2.47
2018-06-23T00:34:37.579Z,2.70
2018-06-23T00:37:04.520Z,1.90
2018-06-23T00:39:31.465Z,2.20
2018-06-23T00:41:58.457Z,2.63
2018-06-23T00:44:25.420Z,2.70
2018-06-23T00:46:52.340Z,2.80
2018-06-23T00:49:19.368Z,2.17
2018-06-23T00:51:46.519Z,3.00
2018-06-23T00:54:13.456Z,2.20
2018-06-23T00:56:40.400Z,2.10
2018-06-23T00:59:41.903Z,2.87
2018-06-23T01:02:09.158Z,2.87
2018-06-23T01:04:36.267Z,3.10
2018-06-23T01:07:03.249Z,2.67
2018-06-23T01:09:30.196Z,2.07
2018-06-23T01:11:57.273Z,2.20
2018-06-23T01:14:24.227Z,2.20
2018-06-23T01:16:51.154Z,2.37
2018-06-23T01:19:18.285Z,3.23
2018-06-23T01:21:45.299Z,2.83
2018-06-23T01:24:12.278Z,2.50
2018-06-23T01:26:39.217Z,2.70
2018-06-23T01:29:06.247Z,2.80
2018-06-23T01:31:33.176Z,2.40
2018-06-23T01:34:00.155Z,2.83
2018-06-23T01:36:27.125Z,2.07
2018-06-23T01:38:54.102Z,2.90
2018-06-23T01:41:21.058Z,3.00
2018-06-23T01:43:48.017Z,2.70
2018-06-23T01:46:14.983Z,3.50
2018-06-23T01:48:41.937Z,3.30
2018-06-23T01:51:08.948Z,2.80
2018-06-23T01:53:35.956Z,2.70
2018-06-23T01:56:02.941Z,2.83
2018-06-23T01:58:30.084Z,3.80
2018-06-23T02:00:57.054Z,2.80
2018-06-23T02:03:24.029Z,3.37
2018-06-23T02:05:51.018Z,2.60
2018-06-23T02:08:18.001Z,2.43
2018-06-23T02:10:47.033Z,3.07
2018-06-23T02:13:13.949Z,2.70
2018-06-23T02:15:46.579Z,2.70
2018-06-23T02:19:21.097Z,2.93
2018-06-23T02:21:53.826Z,2.73
2018-06-23T02:24:26.577Z,2.40
2018-06-23T02:26:59.741Z,2.73
2018-06-23T02:29:32.740Z,2.77
2018-06-23T02:32:05.640Z,3.27
2018-06-23T02:34:38.449Z,2.80
2018-06-23T02:37:05.469Z,3.00
2018-06-23T02:39:32.522Z,2.40
2018-06-23T02:41:59.641Z,2.80
2018-06-23T02:44:26.586Z,2.50
2018-06-23T02:46:53.520Z,3.20
2018-06-23T02:49:20.454Z,3.03
2018-06-23T02:51:47.369Z,3.23
2018-06-23T02:54:14.331Z,2.80
2018-06-23T02:56:41.278Z,2.77
2018-06-23T02:59:08.244Z,3.10
2018-06-23T03:01:35.166Z,3.07
2018-06-23T03:04:02.091Z,2.90
2018-06-23T03:06:29.037Z,2.57
2018-06-23T03:08:56.085Z,2.77
2018-06-23T03:11:23.033Z,3.10
2018-06-23T03:13:49.976Z,2.70
2018-06-23T03:16:16.897Z,3.13
2018-06-23T03:18:43.872Z,2.93
2018-06-23T03:21:10.809Z,3.40
2018-06-23T03:23:37.786Z,3.43
2018-06-23T03:26:04.747Z,2.70
2018-06-23T03:28:31.692Z,3.20
2018-06-23T03:30:58.659Z,3.50
2018-06-23T03:33:25.591Z,3.53
2018-06-23T03:35:52.537Z,3.83
2018-06-23T03:38:20.069Z,3.20
2018-06-23T03:40:47.025Z,3.60
2018-06-23T03:43:13.951Z,3.37
2018-06-23T03:45:40.878Z,3.30
2018-06-23T03:48:07.832Z,3.80
2018-06-23T03:50:34.776Z,3.87
2018-06-23T03:53:01.692Z,4.17
2018-06-23T03:55:28.711Z,3.63
2018-06-23T03:57:55.669Z,4.20
2018-06-23T04:00:22.626Z,3.80
2018-06-23T04:02:49.569Z,3.90
2018-06-23T04:05:16.515Z,4.57
2018-06-23T04:07:43.462Z,3.47
2018-06-23T04:10:10.406Z,3.80
2018-06-23T04:12:37.360Z,3.43
2018-06-23T04:15:04.705Z,3.67
2018-06-23T04:17:31.651Z,3.00
2018-06-23T04:19:58.608Z,3.47
2018-06-23T04:22:25.537Z,4.13
2018-06-23T04:24:52.490Z,3.43
2018-06-23T04:27:19.422Z,3.67
2018-06-23T04:29:46.352Z,3.60
2018-06-23T04:32:13.316Z,3.97
2018-06-23T04:34:40.247Z,2.67
2018-06-23T04:37:07.171Z,3.90
2018-06-23T04:39:34.088Z,4.57
2018-06-23T04:42:00.996Z,3.23
2018-06-23T04:44:27.908Z,2.97
2018-06-23T04:46:54.836Z,4.00
2018-06-23T04:49:21.731Z,3.00
2018-06-23T04:51:48.639Z,3.60
2018-06-23T04:54:15.576Z,3.47
2018-06-23T04:56:42.510Z,2.63
2018-06-23T04:59:09.429Z,2.93
2018-06-23T05:01:36.369Z,3.57
2018-06-23T05:04:03.280Z,2.67
2018-06-23T05:06:30.208Z,2.87
2018-06-23T05:08:57.150Z,3.10
2018-06-23T05:11:24.091Z,4.93
2018-06-23T05:13:51.021Z,3.00
2018-06-23T05:16:17.987Z,3.70
2018-06-23T05:18:44.952Z,4.00
2018-06-23T05:21:11.909Z,2.90
2018-06-23T05:23:38.841Z,4.23
2018-06-23T05:26:05.884Z,5.30
2018-06-23T05:28:32.768Z,4.30
2018-06-23T05:30:59.742Z,3.30
2018-06-23T05:33:26.661Z,3.43
2018-06-23T05:35:53.593Z,2.67
2018-06-23T05:38:20.555Z,3.67
2018-06-23T05:40:47.478Z,3.50
2018-06-23T05:43:14.445Z,3.73
2018-06-23T05:45:41.426Z,3.10
2018-06-23T05:48:08.763Z,3.40
2018-06-23T05:50:36.502Z,3.50
2018-06-23T05:53:03.705Z,3.10
2018-06-23T05:55:30.656Z,4.27
2018-06-23T05:57:57.668Z,2.60
2018-06-23T06:00:24.633Z,3.53
2018-06-23T06:02:51.637Z,3.23
2018-06-23T06:05:18.622Z,4.00
2018-06-23T06:07:45.608Z,3.43
2018-06-23T06:10:12.564Z,3.63
2018-06-23T06:12:39.529Z,5.17
2018-06-23T06:15:06.479Z,6.97
2018-06-23T06:17:35.475Z,3.53
2018-06-23T06:20:03.594Z,3.90
2018-06-23T06:22:31.844Z,2.97
2018-06-23T06:24:58.784Z,4.07
2018-06-23T06:27:25.810Z,2.80
2018-06-23T06:29:53.388Z,4.20
2018-06-23T06:32:20.360Z,3.23
2018-06-23T06:34:47.315Z,3.43
2018-06-23T06:37:14.252Z,3.00
2018-06-23T06:39:41.376Z,4.33
2018-06-23T06:42:08.331Z,3.73
2018-06-23T06:44:35.333Z,2.67
2018-06-23T06:47:02.287Z,3.47
2018-06-23T06:49:29.406Z,2.97
2018-06-23T06:51:56.368Z,2.80
2018-06-23T06:54:23.295Z,3.20
2018-06-23T06:56:50.718Z,3.40
2018-06-23T06:59:18.380Z,4.87
2018-06-23T07:01:45.344Z,3.23
2018-06-23T07:04:12.268Z,3.20
2018-06-23T07:06:39.219Z,3.53
2018-06-23T07:09:09.247Z,3.97
2018-06-23T07:11:36.215Z,4.17
2018-06-23T07:14:03.833Z,4.77
2018-06-23T07:16:30.807Z,8.50
2018-06-23T07:18:57.733Z,4.10
2018-06-23T07:21:24.781Z,4.90
2018-06-23T07:23:51.847Z,4.23
2018-06-23T07:26:18.671Z,3.80
2018-06-23T07:28:45.633Z,4.70
2018-06-23T07:31:12.575Z,3.10
2018-06-23T07:33:39.533Z,2.90
2018-06-23T07:36:06.507Z,3.30
2018-06-23T07:38:33.457Z,5.60
2018-06-23T07:41:00.416Z,3.37
2018-06-23T07:43:27.393Z,2.87
2018-06-23T07:45:54.341Z,4.17
2018-06-23T07:48:21.265Z,3.13
2018-06-23T07:50:48.231Z,2.90
2018-06-23T07:53:15.185Z,3.70
2018-06-23T07:55:42.162Z,2.97
2018-06-23T07:58:09.179Z,3.50
2018-06-23T08:00:36.164Z,3.27
2018-06-23T08:03:03.351Z,5.90
2018-06-23T08:05:30.391Z,3.10
2018-06-23T08:07:57.339Z,5.03
2018-06-23T08:10:24.347Z,3.50
2018-06-23T08:12:51.625Z,3.30
2018-06-23T08:15:18.603Z,3.80
2018-06-23T08:17:45.617Z,3.20
2018-06-23T08:20:12.659Z,3.20
2018-06-23T08:22:39.649Z,2.90
2018-06-23T08:25:06.742Z,5.93
2018-06-23T08:27:33.711Z,4.13
2018-06-23T08:30:00.677Z,2.70
2018-06-23T08:32:27.667Z,2.30
2018-06-23T08:34:54.638Z,6.90
2018-06-23T08:37:21.927Z,2.17
2018-06-23T08:39:48.905Z,2.63
2018-06-23T08:42:15.887Z,2.33
2018-06-23T08:44:42.823Z,3.43
2018-06-23T08:47:09.883Z,2.27
2018-06-23T08:49:36.868Z,3.17
2018-06-23T08:52:03.958Z,1.80
2018-06-23T08:54:31.072Z,1.10
2018-06-23T08:56:58.513Z,1.30
2018-06-23T08:59:25.493Z,1.10
2018-06-23T09:01:52.870Z,1.37
2018-06-23T09:04:20.483Z,5.43
2018-06-23T09:06:47.480Z,1.97
2018-06-23T09:09:14.421Z,1.40
2018-06-23T09:11:42.159Z,2.63
2018-06-23T09:14:09.650Z,1.60
2018-06-23T09:16:37.362Z,1.70
2018-06-23T09:19:04.768Z,1.70
2018-06-23T09:21:31.814Z,2.07
2018-06-23T09:23:58.927Z,1.67
2018-06-23T09:26:26.009Z,1.90
2018-06-23T09:28:52.958Z,1.77
2018-06-23T09:31:19.976Z,2.57
2018-06-23T09:33:46.959Z,1.90
2018-06-23T09:36:13.963Z,2.20
2018-06-23T09:38:40.937Z,2.03
2018-06-23T09:41:08.018Z,3.17
2018-06-23T09:43:34.985Z,2.43
2018-06-23T09:46:02.021Z,2.53
2018-06-23T09:48:29.083Z,2.33
2018-06-23T09:50:56.040Z,1.90
2018-06-23T09:53:23.028Z,1.57
2018-06-23T09:55:50.002Z,2.17
2018-06-23T09:58:17.077Z,1.63
2018-06-23T10:00:44.168Z,2.40
2018-06-23T10:03:11.336Z,2.40
2018-06-23T10:05:38.287Z,2.60
2018-06-23T10:08:05.352Z,2.30
2018-06-23T10:10:32.454Z,2.30
2018-06-23T10:12:59.452Z,2.53
2018-06-23T10:15:26.479Z,2.30
2018-06-23T10:17:53.548Z,2.20
2018-06-23T10:20:20.614Z,3.00
2018-06-23T10:22:47.831Z,2.13
2018-06-23T10:25:14.976Z,1.73
2018-06-23T10:27:42.007Z,3.10
2018-06-23T10:30:09.064Z,2.80
2018-06-23T10:32:36.247Z,2.20
2018-06-23T10:35:03.308Z,1.90
2018-06-23T10:37:30.334Z,1.77
2018-06-23T10:39:57.387Z,1.73
2018-06-23T10:42:24.363Z,3.97
2018-06-23T10:44:51.315Z,1.80
2018-06-23T10:47:18.423Z,1.87
2018-06-23T10:49:45.562Z,3.27
2018-06-23T10:52:12.538Z,2.00
2018-06-23T10:54:39.508Z,2.00
2018-06-23T10:57:06.466Z,2.03
2018-06-23T10:59:33.417Z,2.60
2018-06-23T11:02:00.448Z,1.87
2018-06-23T11:04:27.484Z,1.30
2018-06-23T11:06:54.719Z,1.13
2018-06-23T11:09:21.710Z,1.33
2018-06-23T11:11:48.715Z,2.30
2018-06-23T11:14:15.890Z,2.23
2018-06-23T11:16:42.852Z,2.63
2018-06-23T11:19:09.934Z,1.30
2018-06-23T11:21:36.952Z,1.90
2018-06-23T11:24:04.165Z,2.40
2018-06-23T11:26:31.413Z,2.77
2018-06-23T11:28:58.431Z,3.60
2018-06-23T11:31:25.523Z,2.73
2018-06-23T11:33:52.698Z,2.50
2018-06-23T11:36:19.714Z,2.23
2018-06-23T11:38:46.724Z,2.23
2018-06-23T11:41:14.682Z,4.70
2018-06-23T11:43:41.848Z,5.07
2018-06-23T11:46:08.836Z,4.30
2018-06-23T11:48:35.796Z,1.93
2018-06-23T11:51:02.984Z,5.23
2018-06-23T11:53:30.295Z,3.60
2018-06-23T11:55:57.294Z,3.73
2018-06-23T11:58:24.260Z,3.90
2018-06-23T12:00:51.247Z,3.00
2018-06-23T12:03:18.488Z,2.00
2018-06-23T12:05:45.751Z,2.23
2018-06-23T12:08:12.728Z,1.83
2018-06-23T12:10:40.008Z,2.50
2018-06-23T12:13:07.205Z,2.30
2018-06-23T12:15:34.228Z,1.67
2018-06-23T12:18:01.341Z,2.53
2018-06-23T12:20:28.321Z,1.53
2018-06-23T12:22:55.356Z,1.37
2018-06-23T12:25:22.507Z,2.37
2018-06-23T12:27:49.548Z,2.30
2018-06-23T12:30:16.740Z,2.20
2018-06-23T12:32:43.883Z,1.70
2018-06-23T12:35:10.871Z,2.17
2018-06-23T12:37:37.952Z,1.90
2018-06-23T12:40:05.350Z,1.50
2018-06-23T12:42:32.378Z,2.00
2018-06-23T12:45:00.063Z,1.70
2018-06-23T12:47:27.210Z,1.47
2018-06-23T12:49:54.465Z,2.03
2018-06-23T12:52:21.449Z,1.70
2018-06-23T12:54:48.459Z,2.10
2018-06-23T12:57:15.440Z,2.60
2018-06-23T12:59:42.557Z,2.60
2018-06-23T13:02:09.816Z,1.50
2018-06-23T13:04:36.791Z,2.73
2018-06-23T13:07:03.768Z,2.40
2018-06-23T13:09:30.723Z,2.77
2018-06-23T13:11:57.813Z,4.40
2018-06-23T13:14:24.904Z,3.37
2018-06-23T13:16:51.889Z,2.10
2018-06-23T13:19:18.903Z,3.93
2018-06-23T13:21:46.469Z,3.13
2018-06-23T13:24:13.479Z,2.00
2018-06-23T13:26:40.462Z,2.37
2018-06-23T13:29:07.420Z,2.40
2018-06-23T13:31:34.446Z,3.30
2018-06-23T13:34:01.468Z,3.07
2018-06-23T13:36:28.445Z,2.40
2018-06-23T13:38:55.607Z,3.30
2018-06-23T13:41:22.761Z,3.47
2018-06-23T13:43:50.770Z,2.90
2018-06-23T13:46:17.861Z,3.33
2018-06-23T13:48:44.949Z,4.53
2018-06-23T13:51:11.975Z,2.80
2018-06-23T13:53:38.921Z,2.27
2018-06-23T13:56:06.038Z,5.03
2018-06-23T13:58:33.514Z,2.60
2018-06-23T14:01:00.607Z,2.77
2018-06-23T14:03:27.655Z,2.33
2018-06-23T14:05:54.835Z,2.70
2018-06-23T14:08:21.934Z,2.70
2018-06-23T14:10:48.988Z,3.70
2018-06-23T14:13:16.956Z,3.07
2018-06-23T14:15:44.664Z,3.67
2018-06-23T14:18:11.709Z,4.20
2018-06-23T14:20:38.910Z,3.00
2018-06-23T14:23:05.915Z,2.80
2018-06-23T14:25:32.921Z,4.20
2018-06-23T14:28:00.068Z,2.60
2018-06-23T14:30:27.164Z,2.60
2018-06-23T14:32:54.120Z,2.27
2018-06-23T14:35:21.118Z,3.10
2018-06-23T14:37:48.084Z,2.77
2018-06-23T14:40:15.226Z,3.17
2018-06-23T14:42:42.181Z,2.60
2018-06-23T14:45:09.119Z,2.60
2018-06-23T14:47:36.365Z,2.57
2018-06-23T14:50:03.406Z,3.70
2018-06-23T14:52:30.428Z,5.00
2018-06-23T14:55:04.197Z,3.60
2018-06-23T14:57:31.181Z,3.30
2018-06-23T14:59:58.123Z,2.70
2018-06-23T15:02:25.093Z,3.27
2018-06-23T15:04:52.098Z,3.67
2018-06-23T15:07:20.916Z,3.97
2018-06-23T15:09:59.600Z,4.23
2018-06-23T15:12:38.220Z,4.57
2018-06-23T15:15:05.205Z,4.90
2018-06-23T15:17:32.166Z,4.40
2018-06-23T15:19:59.280Z,6.27
2018-06-23T15:22:26.238Z,4.73
2018-06-23T15:24:53.175Z,4.13
2018-06-23T15:27:20.160Z,3.87
2018-06-23T15:29:47.128Z,4.67
2018-06-23T15:32:14.075Z,3.87
2018-06-23T15:34:41.108Z,4.90
2018-06-23T15:37:08.117Z,5.00
2018-06-23T15:39:35.113Z,3.90
2018-06-23T15:42:02.146Z,5.17
2018-06-23T15:44:29.113Z,5.23
2018-06-23T15:46:56.122Z,6.83
2018-06-23T15:49:23.061Z,6.30
2018-06-23T15:51:50.003Z,6.57
2018-06-23T15:54:17.027Z,5.70
2018-06-23T15:56:44.047Z,4.83
2018-06-23T15:59:11.019Z,7.10
2018-06-23T16:01:38.041Z,6.13
2018-06-23T16:04:04.987Z,6.57
2018-06-23T16:06:31.974Z,5.77
2018-06-23T16:08:58.976Z,6.47
2018-06-23T16:11:25.906Z,6.83
2018-06-23T16:13:52.867Z,5.87
2018-06-23T16:16:19.836Z,7.63
2018-06-23T16:18:47.196Z,7.60
2018-06-23T16:21:14.240Z,5.37
2018-06-23T16:23:41.490Z,6.50
2018-06-23T16:26:08.435Z,6.37
2018-06-23T16:28:35.422Z,4.57
2018-06-23T16:31:02.445Z,5.83
2018-06-23T16:33:29.464Z,5.60
2018-06-23T16:35:56.470Z,5.10
2018-06-23T16:38:23.451Z,15.23
2018-06-23T16:40:50.413Z,4.90
2018-06-23T16:43:18.563Z,6.60
2018-06-23T16:45:45.531Z,7.57
2018-06-23T16:48:12.486Z,6.40
2018-06-23T16:50:39.486Z,7.30
2018-06-23T16:53:06.456Z,4.90
2018-06-23T16:55:33.420Z,5.83
2018-06-23T16:58:00.432Z,6.50
2018-06-23T17:00:27.469Z,5.57
2018-06-23T17:02:54.463Z,4.90
2018-06-23T17:05:21.485Z,5.63
2018-06-23T17:07:48.792Z,6.17
2018-06-23T17:10:15.894Z,5.40
2018-06-23T17:12:42.848Z,5.10
2018-06-23T17:15:09.898Z,3.60
2018-06-23T17:17:36.847Z,4.13
2018-06-23T17:20:03.839Z,4.70
2018-06-23T17:22:30.808Z,4.60
2018-06-23T17:24:57.776Z,4.07
2018-06-23T17:27:24.744Z,3.40
2018-06-23T17:29:51.750Z,4.00
2018-06-23T17:32:18.849Z,3.83
2018-06-23T17:34:45.891Z,3.90
2018-06-23T17:37:12.865Z,3.73
2018-06-23T17:39:39.886Z,5.30
2018-06-23T17:42:06.872Z,4.07
2018-06-23T17:44:33.845Z,4.23
2018-06-23T17:47:00.822Z,2.73
2018-06-23T17:49:34.807Z,3.60
2018-06-23T17:52:01.748Z,3.60
2018-06-23T17:54:28.686Z,3.53
2018-06-23T17:56:55.672Z,4.20
2018-06-23T17:59:22.674Z,3.80
2018-06-23T18:01:49.713Z,4.97
2018-06-23T18:04:16.742Z,4.30
2018-06-23T18:06:43.787Z,3.33
2018-06-23T18:09:10.990Z,4.73
2018-06-23T18:11:38.427Z,4.77
2018-06-23T18:14:05.605Z,4.00
2018-06-23T18:16:32.617Z,4.30
2018-06-23T18:18:59.727Z,3.83
2018-06-23T18:21:26.752Z,4.27
2018-06-23T18:23:53.759Z,6.50
2018-06-23T18:26:21.555Z,4.73
2018-06-23T18:28:48.571Z,6.93
2018-06-23T18:31:15.578Z,5.43
2018-06-23T18:33:42.721Z,6.00
2018-06-23T18:36:09.714Z,4.77
2018-06-23T18:38:36.986Z,12.13
2018-06-23T18:41:04.098Z,9.20
2018-06-23T18:43:31.076Z,11.43
2018-06-23T18:45:58.060Z,16.23
2018-06-23T18:48:25.085Z,14.80
2018-06-23T18:50:52.402Z,9.70
2018-06-23T18:53:19.364Z,10.30
2018-06-23T18:55:46.315Z,15.73
2018-06-23T18:58:13.536Z,9.13
2018-06-23T19:00:40.701Z,10.30
2018-06-23T19:03:07.707Z,9.57
2018-06-23T19:05:35.064Z,5.53
2018-06-23T19:08:02.065Z,6.73
2018-06-23T19:10:29.042Z,7.87
2018-06-23T19:12:56.275Z,11.10
2018-06-23T19:15:23.401Z,14.40
2018-06-23T19:17:50.355Z,9.63
2018-06-23T19:20:17.436Z,6.53
2018-06-23T19:22:44.446Z,6.60
2018-06-23T19:25:11.448Z,5.67
2018-06-23T19:27:38.464Z,6.77
2018-06-23T19:30:05.649Z,5.30
2018-06-23T19:32:32.640Z,3.93
2018-06-23T19:34:59.644Z,4.10
2018-06-23T19:37:26.888Z,5.47
2018-06-23T19:39:53.994Z,5.97
2018-06-23T19:42:20.937Z,3.03
2018-06-23T19:44:47.885Z,4.97
2018-06-23T19:47:14.942Z,4.53
2018-06-23T19:49:42.264Z,4.37
2018-06-23T19:52:09.245Z,4.67
2018-06-23T19:54:36.308Z,5.37
2018-06-23T19:57:04.120Z,3.60
2018-06-23T19:59:31.405Z,2.60
2018-06-23T20:01:58.368Z,4.23
2018-06-23T20:04:25.734Z,16.00
2018-06-23T20:06:52.631Z,6.33
2018-06-23T20:09:19.563Z,2.83
2018-06-23T20:11:46.924Z,4.50
2018-06-23T20:14:13.876Z,4.63
2018-06-23T20:16:40.878Z,8.73
2018-06-23T20:19:08.676Z,7.17
2018-06-23T20:21:35.758Z,3.60
2018-06-23T20:24:02.777Z,4.00
2018-06-23T20:26:30.134Z,4.90
2018-06-23T20:28:57.153Z,3.53
2018-06-23T20:31:24.229Z,4.33
2018-06-23T20:33:51.189Z,7.97
2018-06-23T20:36:18.144Z,3.73
2018-06-23T20:38:45.297Z,4.63
2018-06-23T20:41:12.244Z,5.13
2018-06-23T20:43:39.260Z,5.83
2018-06-23T20:46:06.265Z,4.80
2018-06-23T20:48:33.568Z,5.37
2018-06-23T20:51:00.556Z,5.50
2018-06-23T20:53:27.702Z,3.67
2018-06-23T20:55:55.119Z,4.40
2018-06-23T20:58:22.110Z,5.30
2018-06-23T21:00:49.058Z,6.83
2018-06-23T21:03:16.055Z,5.40
2018-06-23T21:05:43.090Z,13.63
2018-06-23T21:08:10.855Z,4.87
2018-06-23T21:10:41.118Z,6.37
2018-06-23T21:13:08.628Z,6.80
2018-06-23T21:15:36.099Z,6.00
2018-06-23T21:18:03.104Z,6.60
2018-06-23T21:20:30.698Z,7.90
2018-06-23T21:22:57.777Z,6.93
2018-06-23T21:25:25.195Z,7.00
2018-06-23T21:27:52.159Z,7.03
2018-06-23T21:30:19.468Z,6.77
2018-06-23T21:32:46.411Z,7.43
2018-06-23T21:35:13.388Z,7.83
2018-06-23T21:37:40.407Z,8.20
2018-06-23T21:40:07.503Z,9.63
2018-06-23T21:42:34.439Z,9.87
2018-06-23T21:45:01.392Z,12.00
2018-06-23T21:47:28.379Z,9.63
2018-06-23T21:49:55.551Z,12.00
2018-06-23T21:52:22.534Z,16.53
2018-06-23T21:54:49.891Z,11.40
2018-06-23T21:57:16.933Z,12.93
2018-06-23T21:59:44.153Z,12.30
2018-06-23T22:02:11.133Z,14.73
2018-06-23T22:04:38.156Z,24.60
2018-06-23T22:07:05.115Z,12.00
2018-06-23T22:09:32.096Z,12.00
2018-06-23T22:11:59.307Z,10.60
2018-06-23T22:14:26.222Z,9.90
2018-06-23T22:16:53.713Z,9.47
2018-06-23T22:19:20.768Z,13.37
2018-06-23T22:21:47.706Z,9.67
2018-06-23T22:24:14.685Z,9.87
2018-06-23T22:26:41.891Z,9.77
2018-06-23T22:29:08.853Z,8.97
2018-06-23T22:31:36.634Z,9.30
2018-06-23T22:34:03.636Z,9.50
2018-06-23T22:36:30.592Z,9.10
2018-06-23T22:38:57.679Z,9.67
2018-06-23T22:41:24.753Z,9.80
2018-06-23T22:43:51.901Z,10.23
2018-06-23T22:46:18.957Z,10.23
2018-06-23T22:48:45.982Z,11.17
2018-06-23T22:51:12.944Z,10.37
2018-06-23T22:53:40.127Z,9.93
2018-06-23T22:56:07.243Z,9.57
2018-06-23T22:58:34.224Z,10.13
2018-06-23T23:01:01.264Z,10.00
2018-06-23T23:03:28.356Z,9.67
2018-06-23T23:05:55.374Z,9.67
2018-06-23T23:08:22.811Z,9.90
2018-06-23T23:10:49.810Z,9.10
2018-06-23T23:13:16.735Z,7.90
2018-06-23T23:15:43.923Z,9.07
2018-06-23T23:18:10.920Z,10.80
2018-06-23T23:20:38.134Z,9.10
2018-06-23T23:23:05.258Z,8.70
2018-06-23T23:25:32.311Z,9.67
2018-06-23T23:28:00.239Z,8.73
2018-06-23T23:30:27.214Z,8.20
2018-06-23T23:32:54.181Z,7.90
2018-06-23T23:35:21.191Z,8.60
2018-06-23T23:37:48.149Z,11.63
2018-06-23T23:40:15.132Z,9.37
2018-06-23T23:42:42.259Z,9.70
2018-06-23T23:45:09.273Z,8.33
2018-06-23T23:50:09.937Z,9.20
2018-06-23T23:52:36.896Z,10.23
2018-06-23T23:55:03.880Z,8.70
2018-06-23T23:57:31.260Z,9.30
2018-06-23T23:59:58.213Z,8.10
